Terminal Aerodrome Forecast
Issued by NWS

Home | Current Version | Previous Version | Text Only | Print | Product List | Glossary On
Versions: 1 2 3 4 5 6 7 8 9 10 11 12 13
000
FTAK31 PAJN 041154
TAFAYA
TAF
PAYA 041154Z 0412/0512 08003KT P6SM -RA SCT006 OVC060
     FM041500 09008KT 6SM -RA BKN020 OVC040
     FM041800 09010G17KT 4SM RA BR OVC025 WS020/13025KT
     FM042200 09010G20KT 3SM RA BR SCT010 OVC025 WS020/14035KT
     FM050300 06009KT 4SM RA BR BKN025 OVC050 WS020/14030KT
     FM050700 07004KT P6SM -RA SCT025 OVC050
      AMD LTD TO CLD VIS AND WIND 0406/0410=

USA.gov is the U.S. government's official web portal to all federal, state and local government web resources and services.